Time;durP1;ratioP1;P1;durP2;ratioP2;P2;SDS_P1;SDS_P2;PMS_P1;PMS_P2;Temp;Humidity;BMP_temperature;BMP_pressure;BME280_temperature;BME280_humidity;BME280_pressure;Samples;Min_cycle;Max_cycle;Signal;HPM_P1;HPM_P2
2021/12/07 00:01:18;;;;;;;480.71;441.03;;;;;;;18.88;48.49;99726.13;;;;-51
2021/12/07 00:04:18;;;;;;;317.03;292.49;;;;;;;18.87;48.53;99725.30;;;;-66
2021/12/07 00:07:19;;;;;;;486.03;445.86;;;;;;;18.86;48.53;99726.94;;;;-66
2021/12/07 00:10:18;;;;;;;342.48;315.39;;;;;;;18.84;48.52;99726.78;;;;-66
2021/12/07 00:13:19;;;;;;;238.93;221.04;;;;;;;18.82;48.54;99735.54;;;;-65
2021/12/07 00:16:19;;;;;;;261.83;242.25;;;;;;;18.81;48.60;99729.95;;;;-65
2021/12/07 00:19:18;;;;;;;259.29;239.88;;;;;;;18.80;48.59;99728.32;;;;-67
2021/12/07 00:22:18;;;;;;;294.94;272.45;;;;;;;18.78;48.59;99728.88;;;;-65
2021/12/07 00:25:18;;;;;;;287.96;266.09;;;;;;;18.77;48.58;99723.27;;;;-67
2021/12/07 00:28:21;;;;;;;493.09;452.31;;;;;;;18.75;48.64;99719.70;;;;-66
2021/12/07 00:31:25;;;;;;;513.53;470.75;;;;;;;18.73;48.62;99719.70;;;;-52
2021/12/07 00:34:27;;;;;;;488.85;448.01;;;;;;;18.72;48.66;99713.45;;;;-51
2021/12/07 00:37:19;;;;;;;312.07;287.98;;;;;;;18.70;48.65;99706.34;;;;-52
2021/12/07 00:40:19;;;;;;;314.57;290.32;;;;;;;18.68;48.65;99715.27;;;;-51
2021/12/07 00:43:18;;;;;;;329.28;303.65;;;;;;;18.66;48.67;99703.83;;;;-66
2021/12/07 00:46:19;;;;;;;248.73;230.15;;;;;;;18.66;48.66;99706.02;;;;-66
2021/12/07 00:49:19;;;;;;;271.85;251.42;;;;;;;18.64;48.71;99709.44;;;;-67
2021/12/07 00:52:18;;;;;;;257.89;238.73;;;;;;;18.62;48.69;99698.56;;;;-66
2021/12/07 00:55:18;;;;;;;313.63;289.39;;;;;;;18.61;48.72;99695.79;;;;-65
2021/12/07 00:58:23;;;;;;;277.22;256.29;;;;;;;18.61;48.75;99708.54;;;;-65
2021/12/07 01:01:18;;;;;;;299.01;276.27;;;;;;;18.59;48.76;99703.13;;;;-56
2021/12/07 01:04:18;;;;;;;282.05;260.86;;;;;;;18.57;48.73;99691.61;;;;-55
2021/12/07 01:07:38;;;;;;;316.35;291.92;;;;;;;18.56;48.78;99683.00;;;;-55
2021/12/07 01:27:19;;;;;;;264.98;245.15;;;;;;;18.48;48.92;99694.61;;;;-67
2021/12/07 01:30:22;;;;;;;307.71;284.23;;;;;;;18.46;48.90;99707.02;;;;-67
2021/12/07 01:33:38;;;;;;;292.49;270.29;;;;;;;18.46;48.93;99709.88;;;;-67
2021/12/07 01:36:38;;;;;;;297.54;274.88;;;;;;;18.45;48.90;99710.98;;;;-57
2021/12/07 01:39:50;;;;;;;291.63;269.34;;;;;;;18.44;48.91;99709.95;;;;-57
2021/12/07 01:45:56;;;;;;;327.18;301.53;;;;;;;18.41;48.89;99712.30;;;;-57
2021/12/07 01:49:57;;;;;;;311.05;287.07;;;;;;;18.40;48.93;99716.20;;;;-57
2021/12/07 01:53:15;;;;;;;316.41;291.83;;;;;;;18.37;48.93;99715.40;;;;-57
2021/12/07 01:59:37;;;;;;;294.81;272.32;;;;;;;18.35;48.91;99714.75;;;;-64
2021/12/07 02:02:19;;;;;;;295.40;272.86;;;;;;;18.35;48.94;99719.13;;;;-65
2021/12/07 02:05:18;;;;;;;276.69;255.86;;;;;;;18.34;48.95;99716.36;;;;-66
2021/12/07 02:08:18;;;;;;;313.22;289.00;;;;;;;18.33;48.93;99723.02;;;;-65
2021/12/07 02:11:19;;;;;;;286.71;265.13;;;;;;;18.32;48.96;99722.05;;;;-65
2021/12/07 02:14:18;;;;;;;292.89;270.59;;;;;;;18.31;49.00;99724.48;;;;-66
2021/12/07 02:17:21;;;;;;;285.08;263.30;;;;;;;18.30;49.00;99728.45;;;;-64
2021/12/07 02:20:19;;;;;;;269.09;248.88;;;;;;;18.29;48.92;99740.22;;;;-66
2021/12/07 02:23:18;;;;;;;236.45;218.85;;;;;;;18.28;49.04;99736.18;;;;-66
2021/12/07 02:26:18;;;;;;;277.83;256.82;;;;;;;18.27;48.99;99737.38;;;;-65
2021/12/07 02:29:18;;;;;;;255.01;235.95;;;;;;;18.26;49.03;99746.89;;;;-66
2021/12/07 02:32:18;;;;;;;268.83;248.51;;;;;;;18.25;49.07;99748.01;;;;-65
2021/12/07 02:35:23;;;;;;;228.89;211.85;;;;;;;18.25;49.05;99743.31;;;;-66
2021/12/07 02:38:19;;;;;;;233.80;216.41;;;;;;;18.23;49.09;99736.24;;;;-66
2021/12/07 02:41:18;;;;;;;208.68;193.11;;;;;;;18.22;49.08;99743.23;;;;-67
2021/12/07 02:44:18;;;;;;;220.09;203.64;;;;;;;18.21;49.14;99737.06;;;;-65
2021/12/07 02:47:18;;;;;;;226.40;209.57;;;;;;;18.21;49.05;99738.94;;;;-65
2021/12/07 02:50:18;;;;;;;201.15;186.26;;;;;;;18.20;49.08;99739.16;;;;-65
2021/12/07 02:53:21;;;;;;;246.57;228.15;;;;;;;18.18;49.11;99756.13;;;;-65
2021/12/07 02:56:19;;;;;;;246.48;228.10;;;;;;;18.17;49.06;99754.81;;;;-66
2021/12/07 02:59:19;;;;;;;261.53;241.88;;;;;;;18.16;49.06;99748.02;;;;-67
2021/12/07 03:02:20;;;;;;;258.57;239.12;;;;;;;18.15;49.09;99742.89;;;;-64
2021/12/07 03:05:27;;;;;;;264.49;244.65;;;;;;;18.15;49.03;99741.11;;;;-51
2021/12/07 03:09:06;;;;;;;270.19;249.71;;;;;;;18.14;49.09;99741.20;;;;-57
2021/12/07 03:26:19;;;;;;;374.78;344.67;;;;;;;18.09;49.12;99765.34;;;;-51
2021/12/07 03:29:18;;;;;;;521.31;478.13;;;;;;;18.08;49.09;99760.41;;;;-53
2021/12/07 03:32:18;;;;;;;433.13;397.15;;;;;;;18.07;49.14;99770.64;;;;-55
2021/12/07 03:35:18;;;;;;;305.04;281.51;;;;;;;18.07;49.12;99777.67;;;;-57
2021/12/07 03:38:18;;;;;;;292.19;269.83;;;;;;;18.06;49.20;99780.36;;;;-57
2021/12/07 03:41:18;;;;;;;302.69;279.20;;;;;;;18.05;49.14;99782.04;;;;-66
2021/12/07 03:44:19;;;;;;;267.43;247.24;;;;;;;18.05;49.17;99781.72;;;;-65
2021/12/07 03:47:18;;;;;;;305.30;281.87;;;;;;;18.03;49.14;99781.66;;;;-51
2021/12/07 03:50:20;;;;;;;285.13;263.39;;;;;;;18.02;49.18;99784.89;;;;-51
2021/12/07 03:53:18;;;;;;;278.13;256.89;;;;;;;18.02;49.17;99780.03;;;;-51
2021/12/07 03:56:18;;;;;;;255.05;235.75;;;;;;;18.00;49.23;99790.16;;;;-52
2021/12/07 03:59:19;;;;;;;246.78;228.31;;;;;;;17.99;49.25;99793.97;;;;-51
2021/12/07 04:02:18;;;;;;;238.89;220.95;;;;;;;17.98;49.19;99798.82;;;;-52
2021/12/07 04:05:19;;;;;;;187.90;173.95;;;;;;;17.98;49.21;99805.88;;;;-52
2021/12/07 04:08:18;;;;;;;237.89;220.05;;;;;;;17.96;49.24;99810.73;;;;-51
2021/12/07 04:11:18;;;;;;;266.44;246.19;;;;;;;17.96;49.17;99813.81;;;;-51
2021/12/07 04:14:18;;;;;;;241.56;223.37;;;;;;;17.96;49.14;99813.81;;;;-51
2021/12/07 04:17:19;;;;;;;248.40;229.74;;;;;;;17.95;49.16;99821.09;;;;-65
2021/12/07 04:20:18;;;;;;;245.33;226.91;;;;;;;17.94;49.17;99824.76;;;;-64
2021/12/07 04:23:18;;;;;;;214.45;198.25;;;;;;;17.93;49.18;99826.47;;;;-67
2021/12/07 04:26:18;;;;;;;230.08;212.81;;;;;;;17.92;49.17;99825.31;;;;-66
2021/12/07 04:29:18;;;;;;;236.48;218.68;;;;;;;17.91;49.20;99823.78;;;;-66
2021/12/07 04:32:18;;;;;;;234.14;216.62;;;;;;;17.91;49.20;99832.70;;;;-51
2021/12/07 04:35:18;;;;;;;219.25;202.94;;;;;;;17.91;49.15;99842.89;;;;-50
2021/12/07 04:38:18;;;;;;;178.68;165.53;;;;;;;17.90;49.17;99852.88;;;;-51
2021/12/07 04:41:18;;;;;;;235.83;218.17;;;;;;;17.88;49.18;99854.07;;;;-51
2021/12/07 04:44:21;;;;;;;288.69;266.52;;;;;;;17.88;49.22;99861.28;;;;-51
2021/12/07 04:47:24;;;;;;;228.84;211.67;;;;;;;17.88;49.13;99862.27;;;;-52
2021/12/07 04:50:41;;;;;;;240.42;222.33;;;;;;;17.87;49.22;99860.65;;;;-51
2021/12/07 04:59:19;;;;;;;327.08;301.07;;;;;;;17.85;49.16;99882.05;;;;-64
2021/12/07 05:02:19;;;;;;;324.30;298.63;;;;;;;17.84;49.17;99885.84;;;;-67
2021/12/07 05:05:19;;;;;;;348.81;320.65;;;;;;;17.84;49.18;99885.27;;;;-64
2021/12/07 05:08:31;;;;;;;384.15;352.35;;;;;;;17.82;49.20;99888.64;;;;-66
2021/12/07 05:11:43;;;;;;;311.49;287.00;;;;;;;17.83;49.15;99893.39;;;;-66
2021/12/07 05:14:19;;;;;;;306.85;282.85;;;;;;;17.82;49.16;99892.11;;;;-65
2021/12/07 05:17:37;;;;;;;346.87;318.99;;;;;;;17.81;49.15;99886.86;;;;-57
2021/12/07 05:38:19;;;;;;;203.97;188.40;;;;;;;17.77;49.18;99891.63;;;;-65
2021/12/07 05:41:18;;;;;;;193.42;178.70;;;;;;;17.77;49.19;99893.57;;;;-65
2021/12/07 05:44:18;;;;;;;203.61;187.93;;;;;;;17.76;49.25;99902.73;;;;-66
2021/12/07 05:47:19;;;;;;;182.34;168.67;;;;;;;17.76;49.26;99900.79;;;;-65
2021/12/07 05:50:18;;;;;;;191.54;177.08;;;;;;;17.76;49.33;99913.75;;;;-66
2021/12/07 05:53:18;;;;;;;172.16;159.39;;;;;;;17.77;49.27;99923.47;;;;-65
2021/12/07 05:56:18;;;;;;;170.04;157.21;;;;;;;17.79;49.27;99927.13;;;;-66
2021/12/07 05:59:18;;;;;;;193.59;178.62;;;;;;;17.80;49.33;99926.80;;;;-65
2021/12/07 06:02:18;;;;;;;215.41;198.62;;;;;;;17.82;49.22;99934.67;;;;-66
2021/12/07 06:05:18;;;;;;;171.46;158.81;;;;;;;17.83;49.32;99937.15;;;;-65
2021/12/07 06:08:18;;;;;;;173.47;160.68;;;;;;;17.84;49.26;99939.89;;;;-65
2021/12/07 06:11:21;;;;;;;199.08;184.27;;;;;;;17.86;49.21;99944.69;;;;-64
2021/12/07 06:14:20;;;;;;;182.64;169.23;;;;;;;17.88;49.25;99948.27;;;;-64
2021/12/07 06:17:18;;;;;;;186.11;172.45;;;;;;;17.89;49.20;99948.28;;;;-63
2021/12/07 06:20:18;;;;;;;189.55;175.57;;;;;;;17.90;49.30;99947.80;;;;-57
2021/12/07 06:23:18;;;;;;;184.55;170.70;;;;;;;17.87;47.71;99946.90;;;;-65
2021/12/07 06:26:18;;;;;;;176.84;163.82;;;;;;;17.90;48.47;99955.33;;;;-55
2021/12/07 06:29:19;;;;;;;176.79;163.67;;;;;;;17.91;48.70;99964.27;;;;-55
2021/12/07 06:32:19;;;;;;;172.93;160.30;;;;;;;17.92;48.85;99969.28;;;;-56
2021/12/07 06:35:18;;;;;;;204.86;189.69;;;;;;;17.93;48.99;99971.46;;;;-56
2021/12/07 06:38:19;;;;;;;194.45;180.03;;;;;;;17.93;49.02;99982.92;;;;-55
2021/12/07 06:41:18;;;;;;;183.57;170.11;;;;;;;17.94;49.02;99988.51;;;;-55
2021/12/07 06:44:18;;;;;;;178.91;165.67;;;;;;;17.93;49.02;99998.00;;;;-55
2021/12/07 06:47:18;;;;;;;188.51;174.61;;;;;;;17.94;49.07;100008.04;;;;-56
2021/12/07 06:50:18;;;;;;;203.23;188.11;;;;;;;17.93;49.08;100006.59;;;;-59
2021/12/07 06:53:18;;;;;;;226.51;209.50;;;;;;;17.94;49.14;100012.98;;;;-59
2021/12/07 06:56:18;;;;;;;288.86;266.79;;;;;;;17.93;49.13;100014.45;;;;-60
2021/12/07 06:59:18;;;;;;;183.34;169.90;;;;;;;17.93;49.08;100024.02;;;;-60
2021/12/07 07:05:19;;;;;;;181.01;167.57;;;;;;;17.93;49.15;100035.45;;;;-59
2021/12/07 07:08:18;;;;;;;222.80;206.21;;;;;;;17.94;49.12;100037.80;;;;-60
2021/12/07 07:11:18;;;;;;;228.23;211.17;;;;;;;17.93;49.13;100040.80;;;;-60
2021/12/07 07:14:18;;;;;;;208.85;193.37;;;;;;;17.93;49.09;100037.72;;;;-60
2021/12/07 07:17:18;;;;;;;317.05;292.11;;;;;;;17.92;49.09;100043.37;;;;-59
2021/12/07 07:20:19;;;;;;;231.44;214.12;;;;;;;17.93;49.15;100045.17;;;;-52
2021/12/07 07:23:18;;;;;;;203.49;188.39;;;;;;;17.93;49.08;100055.88;;;;-52
2021/12/07 07:26:18;;;;;;;178.25;165.10;;;;;;;17.92;49.09;100046.53;;;;-52
2021/12/07 07:29:18;;;;;;;195.52;180.97;;;;;;;17.92;49.09;100055.53;;;;-52
2021/12/07 07:32:18;;;;;;;212.71;196.91;;;;;;;17.92;49.07;100061.94;;;;-52
2021/12/07 07:35:18;;;;;;;207.39;191.96;;;;;;;17.92;49.07;100067.86;;;;-52
2021/12/07 07:38:18;;;;;;;211.39;195.68;;;;;;;17.91;49.04;100079.30;;;;-51
2021/12/07 07:41:18;;;;;;;235.54;217.92;;;;;;;17.91;49.04;100076.70;;;;-52
2021/12/07 07:44:18;;;;;;;229.49;212.42;;;;;;;17.90;49.06;100079.03;;;;-52
2021/12/07 07:47:18;;;;;;;274.61;253.82;;;;;;;17.90;49.02;100078.86;;;;-52
2021/12/07 07:50:18;;;;;;;256.63;237.33;;;;;;;17.89;49.05;100082.77;;;;-52
2021/12/07 07:53:18;;;;;;;303.56;280.13;;;;;;;17.87;49.04;100076.66;;;;-52
2021/12/07 07:56:19;;;;;;;335.51;308.69;;;;;;;17.87;49.02;100093.36;;;;-52
2021/12/07 07:59:18;;;;;;;208.05;192.53;;;;;;;17.87;49.02;100108.93;;;;-52
2021/12/07 08:02:18;;;;;;;192.25;177.96;;;;;;;17.87;49.03;100112.66;;;;-52
2021/12/07 08:05:18;;;;;;;201.43;186.49;;;;;;;17.86;49.00;100109.16;;;;-52
2021/12/07 08:08:19;;;;;;;184.43;170.73;;;;;;;17.84;49.02;100111.00;;;;-52
2021/12/07 08:11:19;;;;;;;203.14;188.00;;;;;;;17.84;49.01;100101.59;;;;-52
2021/12/07 08:14:18;;;;;;;197.43;182.80;;;;;;;17.84;49.02;100105.25;;;;-52
2021/12/07 08:17:18;;;;;;;188.21;174.26;;;;;;;17.83;48.99;100114.08;;;;-52
2021/12/07 08:20:18;;;;;;;328.38;302.71;;;;;;;17.83;49.02;100116.36;;;;-52
2021/12/07 08:23:18;;;;;;;186.85;173.06;;;;;;;17.82;49.03;100120.19;;;;-58
2021/12/07 08:26:18;;;;;;;189.59;175.43;;;;;;;17.82;49.03;100124.16;;;;-58
2021/12/07 08:29:18;;;;;;;201.14;186.23;;;;;;;17.81;49.06;100126.52;;;;-57
2021/12/07 08:32:18;;;;;;;195.65;181.05;;;;;;;17.82;49.03;100127.73;;;;-58
2021/12/07 08:35:18;;;;;;;201.09;185.99;;;;;;;17.81;49.05;100137.62;;;;-57
2021/12/07 08:38:18;;;;;;;205.05;189.62;;;;;;;17.80;49.04;100127.63;;;;-57
2021/12/07 08:41:18;;;;;;;210.58;194.73;;;;;;;17.80;49.05;100127.72;;;;-57
2021/12/07 08:44:18;;;;;;;199.49;184.49;;;;;;;17.79;49.06;100129.42;;;;-58
2021/12/07 08:47:18;;;;;;;215.97;199.72;;;;;;;17.79;49.06;100130.16;;;;-57
2021/12/07 08:50:18;;;;;;;196.26;181.57;;;;;;;17.80;49.09;100130.95;;;;-57
2021/12/07 08:53:18;;;;;;;226.60;209.45;;;;;;;17.79;49.06;100137.53;;;;-52
2021/12/07 09:00:18;;;;;;;217.53;201.35;;;;;;;17.79;49.09;100134.37;;;;-52
2021/12/07 09:03:18;;;;;;;199.67;184.84;;;;;;;17.78;49.06;100138.97;;;;-52
2021/12/07 09:06:18;;;;;;;222.81;206.23;;;;;;;17.77;49.09;100135.00;;;;-52
2021/12/07 09:09:18;;;;;;;207.43;191.94;;;;;;;17.78;49.03;100141.87;;;;-51
2021/12/07 09:12:18;;;;;;;208.75;193.14;;;;;;;17.77;49.12;100136.30;;;;-52
2021/12/07 09:15:18;;;;;;;201.17;186.06;;;;;;;17.77;49.08;100146.99;;;;-52
2021/12/07 09:18:18;;;;;;;206.15;190.79;;;;;;;17.77;49.07;100152.98;;;;-52
2021/12/07 09:21:18;;;;;;;196.46;181.77;;;;;;;17.77;49.05;100155.02;;;;-52
2021/12/07 09:24:18;;;;;;;183.62;170.07;;;;;;;17.77;49.10;100158.09;;;;-52
2021/12/07 09:27:18;;;;;;;210.19;194.45;;;;;;;17.77;49.06;100157.29;;;;-52
2021/12/07 09:30:18;;;;;;;206.71;191.15;;;;;;;17.77;49.08;100157.12;;;;-52
2021/12/07 09:33:18;;;;;;;223.59;206.87;;;;;;;17.76;49.10;100160.98;;;;-52
2021/12/07 09:36:18;;;;;;;224.03;207.31;;;;;;;17.77;49.10;100151.29;;;;-52
2021/12/07 09:39:18;;;;;;;300.83;277.71;;;;;;;17.77;49.11;100165.31;;;;-52
2021/12/07 09:42:18;;;;;;;337.31;310.45;;;;;;;17.76;49.06;100170.02;;;;-52
2021/12/07 09:45:18;;;;;;;200.39;185.39;;;;;;;17.76;49.13;100167.47;;;;-52
2021/12/07 09:48:18;;;;;;;196.38;181.77;;;;;;;17.75;49.13;100173.16;;;;-52
2021/12/07 09:51:19;;;;;;;191.07;176.81;;;;;;;17.75;49.15;100174.78;;;;-52
2021/12/07 09:54:18;;;;;;;169.72;157.32;;;;;;;17.75;49.08;100179.07;;;;-51
2021/12/07 09:57:18;;;;;;;178.65;165.53;;;;;;;17.74;49.16;100177.67;;;;-52
2021/12/07 10:00:20;;;;;;;177.87;164.77;;;;;;;17.75;49.13;100179.31;;;;-52
2021/12/07 10:03:20;;;;;;;173.01;160.19;;;;;;;17.74;49.13;100173.89;;;;-52
2021/12/07 10:06:18;;;;;;;195.05;180.56;;;;;;;17.74;49.10;100173.62;;;;-52
2021/12/07 10:09:18;;;;;;;197.40;182.83;;;;;;;17.74;49.07;100171.19;;;;-52
2021/12/07 10:12:18;;;;;;;197.19;182.63;;;;;;;17.73;49.13;100163.57;;;;-52
2021/12/07 10:15:18;;;;;;;193.55;179.19;;;;;;;17.72;49.06;100163.49;;;;-51
2021/12/07 10:18:18;;;;;;;170.61;158.05;;;;;;;17.75;49.28;100157.67;;;;-51
2021/12/07 10:21:19;;;;;;;186.51;172.74;;;;;;;17.76;49.39;100152.67;;;;-51
2021/12/07 10:24:22;;;;;;;181.15;167.79;;;;;;;17.79;49.49;100150.73;;;;-51
2021/12/07 10:27:18;;;;;;;167.76;155.53;;;;;;;17.83;49.70;100144.64;;;;-56
2021/12/07 10:30:18;;;;;;;184.59;170.99;;;;;;;17.90;49.86;100137.16;;;;-56
2021/12/07 10:33:18;;;;;;;176.81;163.85;;;;;;;17.94;49.55;100125.67;;;;-53
2021/12/07 10:36:18;;;;;;;201.09;186.31;;;;;;;18.02;49.63;100121.27;;;;-55
2021/12/07 10:39:18;;;;;;;171.50;159.07;;;;;;;18.06;49.56;100113.27;;;;-54
2021/12/07 10:42:18;;;;;;;193.31;179.09;;;;;;;18.12;49.63;100110.23;;;;-52
2021/12/07 10:45:18;;;;;;;175.79;163.05;;;;;;;18.17;49.86;100112.44;;;;-54
2021/12/07 10:48:18;;;;;;;162.14;150.45;;;;;;;18.22;49.58;100110.95;;;;-53
2021/12/07 10:51:18;;;;;;;175.36;162.09;;;;;;;18.29;49.38;100110.41;;;;-48
2021/12/07 10:54:18;;;;;;;164.75;152.87;;;;;;;18.36;49.70;100102.81;;;;-50
2021/12/07 10:57:18;;;;;;;156.19;144.73;;;;;;;18.44;50.07;100096.92;;;;-56
2021/12/07 11:00:20;;;;;;;172.56;159.84;;;;;;;18.48;50.23;100088.59;;;;-51
2021/12/07 11:03:18;;;;;;;180.68;167.19;;;;;;;18.54;50.32;100089.03;;;;-54
2021/12/07 11:06:19;;;;;;;152.61;141.44;;;;;;;18.60;50.19;100083.78;;;;-52
2021/12/07 11:09:18;;;;;;;193.53;179.22;;;;;;;18.66;49.91;100086.81;;;;-57
2021/12/07 11:12:19;;;;;;;178.89;165.77;;;;;;;18.65;49.56;100078.67;;;;-56
2021/12/07 11:15:23;;;;;;;185.18;171.71;;;;;;;18.66;49.48;100080.32;;;;-57
2021/12/07 11:18:18;;;;;;;154.25;142.93;;;;;;;18.67;49.48;100082.17;;;;-56
2021/12/07 11:21:19;;;;;;;180.42;167.28;;;;;;;18.68;49.47;100082.44;;;;-57
2021/12/07 11:24:18;;;;;;;166.96;154.69;;;;;;;18.75;49.71;100082.45;;;;-51
2021/12/07 11:30:18;;;;;;;159.71;147.87;;;;;;;18.84;49.56;100076.41;;;;-50
2021/12/07 11:33:18;;;;;;;179.81;166.45;;;;;;;18.86;49.57;100072.84;;;;-50
2021/12/07 11:36:18;;;;;;;187.81;174.01;;;;;;;18.89;49.58;100066.29;;;;-52
2021/12/07 11:39:18;;;;;;;166.47;154.07;;;;;;;18.93;49.55;100065.65;;;;-50
2021/12/07 11:42:18;;;;;;;167.37;154.87;;;;;;;18.95;49.55;100062.25;;;;-53
2021/12/07 11:45:18;;;;;;;167.02;154.75;;;;;;;19.00;49.64;100059.16;;;;-62
2021/12/07 11:48:18;;;;;;;175.27;162.35;;;;;;;19.03;49.63;100057.13;;;;-53
2021/12/07 11:51:18;;;;;;;157.97;146.09;;;;;;;19.05;49.57;100057.80;;;;-49
2021/12/07 11:54:18;;;;;;;145.88;135.27;;;;;;;19.06;49.33;100053.41;;;;-49
2021/12/07 11:57:18;;;;;;;170.15;157.65;;;;;;;19.08;49.14;100056.17;;;;-55
2021/12/07 12:00:18;;;;;;;149.57;138.79;;;;;;;19.09;49.16;100052.91;;;;-53
2021/12/07 12:03:18;;;;;;;164.15;152.25;;;;;;;19.09;49.14;100047.41;;;;-53
2021/12/07 12:06:18;;;;;;;154.61;143.39;;;;;;;19.10;49.17;100029.22;;;;-53
2021/12/07 12:09:18;;;;;;;165.35;153.28;;;;;;;19.11;49.25;100019.78;;;;-55
2021/12/07 12:12:18;;;;;;;173.17;160.43;;;;;;;19.15;49.42;100008.59;;;;-53
2021/12/07 12:15:18;;;;;;;148.79;138.03;;;;;;;19.20;49.50;100003.48;;;;-55
2021/12/07 12:18:18;;;;;;;165.91;153.82;;;;;;;19.21;49.16;99999.33;;;;-55
2021/12/07 12:21:18;;;;;;;148.46;137.57;;;;;;;19.19;48.99;99997.20;;;;-53
2021/12/07 12:24:20;;;;;;;138.65;128.71;;;;;;;19.19;48.89;99990.13;;;;-55
2021/12/07 12:27:18;;;;;;;146.31;135.69;;;;;;;19.21;48.87;99987.30;;;;-54
2021/12/07 12:30:18;;;;;;;153.20;141.88;;;;;;;19.20;48.80;99981.54;;;;-55
2021/12/07 12:33:18;;;;;;;163.85;151.73;;;;;;;19.21;48.66;99979.91;;;;-55
2021/12/07 12:36:18;;;;;;;179.83;166.49;;;;;;;19.21;48.69;99977.30;;;;-55
2021/12/07 12:39:18;;;;;;;162.29;150.35;;;;;;;19.23;48.67;99977.39;;;;-56
2021/12/07 12:42:18;;;;;;;166.96;154.63;;;;;;;19.23;48.54;99982.01;;;;-55
2021/12/07 12:45:22;;;;;;;165.48;153.04;;;;;;;19.25;48.66;99973.49;;;;-55
2021/12/07 12:48:18;;;;;;;153.00;141.88;;;;;;;19.26;48.65;99969.52;;;;-54
2021/12/07 12:51:18;;;;;;;164.61;152.59;;;;;;;19.27;48.64;99970.80;;;;-56
2021/12/07 12:54:18;;;;;;;170.24;157.64;;;;;;;19.29;48.56;99969.59;;;;-50
2021/12/07 12:57:18;;;;;;;174.00;161.14;;;;;;;19.30;48.54;99968.13;;;;-51
2021/12/07 13:00:18;;;;;;;169.79;157.21;;;;;;;19.33;48.57;99967.62;;;;-51
2021/12/07 13:03:18;;;;;;;168.22;155.90;;;;;;;19.34;48.52;99960.80;;;;-51
2021/12/07 13:06:18;;;;;;;161.44;149.69;;;;;;;19.36;48.53;99952.05;;;;-51
2021/12/07 13:09:18;;;;;;;155.95;144.53;;;;;;;19.37;48.51;99945.03;;;;-51
2021/12/07 13:12:18;;;;;;;140.62;130.37;;;;;;;19.41;48.53;99948.30;;;;-51
2021/12/07 13:15:20;;;;;;;154.78;143.53;;;;;;;19.41;48.46;99938.46;;;;-51
2021/12/07 13:18:18;;;;;;;155.97;144.58;;;;;;;19.42;48.45;99935.77;;;;-50
2021/12/07 13:21:18;;;;;;;157.27;145.78;;;;;;;19.42;48.34;99936.49;;;;-51
2021/12/07 13:24:20;;;;;;;149.73;138.73;;;;;;;19.43;48.37;99927.33;;;;-51
2021/12/07 13:27:19;;;;;;;168.31;155.87;;;;;;;19.45;48.43;99923.83;;;;-51
2021/12/07 13:30:18;;;;;;;140.17;130.13;;;;;;;19.45;48.41;99916.02;;;;-55
2021/12/07 13:33:18;;;;;;;160.80;149.06;;;;;;;19.45;48.34;99909.19;;;;-56
2021/12/07 13:36:18;;;;;;;158.23;146.71;;;;;;;19.46;48.37;99911.80;;;;-56
2021/12/07 13:39:19;;;;;;;169.55;157.26;;;;;;;19.46;48.38;99906.17;;;;-54
2021/12/07 13:42:18;;;;;;;163.33;151.28;;;;;;;19.47;48.29;99899.28;;;;-62
2021/12/07 13:45:19;;;;;;;150.00;139.01;;;;;;;19.48;48.25;99895.93;;;;-55
2021/12/07 13:48:18;;;;;;;163.68;151.57;;;;;;;19.49;48.25;99895.05;;;;-55
2021/12/07 13:51:18;;;;;;;177.41;164.41;;;;;;;19.51;48.20;99891.28;;;;-55
2021/12/07 13:54:18;;;;;;;161.54;149.57;;;;;;;19.51;48.12;99889.44;;;;-60
2021/12/07 13:57:18;;;;;;;170.47;158.01;;;;;;;19.53;48.18;99888.47;;;;-56
2021/12/07 14:00:18;;;;;;;162.46;150.59;;;;;;;19.53;48.21;99889.59;;;;-55
2021/12/07 14:03:19;;;;;;;134.70;124.93;;;;;;;19.54;48.18;99889.25;;;;-56
2021/12/07 14:06:18;;;;;;;127.63;118.36;;;;;;;19.56;48.11;99891.45;;;;-56
2021/12/07 14:09:18;;;;;;;159.68;148.01;;;;;;;19.56;48.21;99883.15;;;;-56
2021/12/07 14:12:18;;;;;;;170.57;158.03;;;;;;;19.56;48.38;99879.00;;;;-59
2021/12/07 14:15:18;;;;;;;152.00;140.83;;;;;;;19.63;48.67;99868.49;;;;-54
2021/12/07 14:18:18;;;;;;;162.45;150.45;;;;;;;19.66;48.66;99865.64;;;;-51
2021/12/07 14:21:18;;;;;;;158.57;146.75;;;;;;;19.71;48.62;99864.76;;;;-55
2021/12/07 14:24:20;;;;;;;127.15;117.65;;;;;;;19.71;48.23;99859.80;;;;-55
2021/12/07 14:27:18;;;;;;;143.20;132.55;;;;;;;19.72;48.17;99848.84;;;;-55
2021/12/07 14:30:18;;;;;;;151.12;139.95;;;;;;;19.71;48.08;99843.53;;;;-56
2021/12/07 14:33:18;;;;;;;136.02;126.17;;;;;;;19.72;48.14;99842.17;;;;-56
2021/12/07 14:36:18;;;;;;;154.24;142.83;;;;;;;19.72;48.05;99832.58;;;;-56
2021/12/07 14:39:18;;;;;;;149.93;138.83;;;;;;;19.72;48.19;99828.34;;;;-54
2021/12/07 14:42:18;;;;;;;150.98;139.73;;;;;;;19.66;46.60;99815.81;;;;-56
2021/12/07 14:45:18;;;;;;;168.08;155.36;;;;;;;19.67;47.01;99818.81;;;;-55
2021/12/07 14:48:18;;;;;;;160.84;148.82;;;;;;;19.67;47.26;99813.84;;;;-55
2021/12/07 14:51:18;;;;;;;151.38;140.04;;;;;;;19.69;47.71;99807.25;;;;-53
2021/12/07 14:54:18;;;;;;;169.26;155.17;;;;;;;19.64;46.77;99798.44;;;;-59
2021/12/07 14:57:20;;;;;;;171.50;156.95;;;;;;;19.60;46.67;99797.63;;;;-59
2021/12/07 15:00:19;;;;;;;168.01;154.35;;;;;;;19.61;46.63;99798.92;;;;-52
2021/12/07 15:03:18;;;;;;;189.55;174.18;;;;;;;19.62;46.40;99796.41;;;;-49
2021/12/07 15:06:18;;;;;;;190.24;174.92;;;;;;;19.64;46.95;99789.17;;;;-50
2021/12/07 15:09:18;;;;;;;185.12;170.41;;;;;;;19.65;47.22;99781.29;;;;-49
2021/12/07 15:12:19;;;;;;;175.85;161.69;;;;;;;19.66;47.28;99779.81;;;;-53
2021/12/07 15:15:18;;;;;;;177.69;163.66;;;;;;;19.67;47.43;99780.87;;;;-53
2021/12/07 15:18:18;;;;;;;187.41;172.64;;;;;;;19.68;47.48;99785.65;;;;-53
2021/12/07 15:21:18;;;;;;;165.04;152.07;;;;;;;19.69;47.47;99777.61;;;;-52
2021/12/07 15:24:18;;;;;;;162.00;149.27;;;;;;;19.71;47.58;99777.45;;;;-52
2021/12/07 15:27:18;;;;;;;183.58;169.45;;;;;;;19.71;47.59;99779.63;;;;-53
2021/12/07 15:30:18;;;;;;;164.77;151.80;;;;;;;19.72;47.67;99772.81;;;;-49
2021/12/07 15:33:18;;;;;;;188.09;173.26;;;;;;;19.74;47.66;99763.95;;;;-50
2021/12/07 15:36:18;;;;;;;176.16;162.47;;;;;;;19.75;47.70;99762.22;;;;-49
2021/12/07 15:39:18;;;;;;;188.08;173.23;;;;;;;19.77;47.67;99760.19;;;;-52
2021/12/07 15:42:19;;;;;;;189.32;174.50;;;;;;;19.77;47.73;99759.77;;;;-52
2021/12/07 15:45:18;;;;;;;192.46;177.07;;;;;;;19.77;47.19;99756.51;;;;-52
2021/12/07 15:48:18;;;;;;;157.00;144.66;;;;;;;19.77;47.43;99747.66;;;;-52
2021/12/07 15:51:18;;;;;;;180.19;166.23;;;;;;;19.78;47.58;99740.59;;;;-52
2021/12/07 15:54:18;;;;;;;186.85;172.04;;;;;;;19.79;47.70;99733.58;;;;-52
2021/12/07 15:57:18;;;;;;;177.81;163.87;;;;;;;19.80;47.70;99726.69;;;;-52
2021/12/07 16:00:18;;;;;;;189.99;175.19;;;;;;;19.81;47.71;99723.00;;;;-52
2021/12/07 16:03:18;;;;;;;182.22;167.96;;;;;;;19.82;47.73;99714.53;;;;-52
2021/12/07 16:06:18;;;;;;;175.13;161.54;;;;;;;19.82;47.85;99709.27;;;;-52
2021/12/07 16:09:18;;;;;;;191.23;176.19;;;;;;;19.85;47.04;99706.31;;;;-51
2021/12/07 16:12:18;;;;;;;196.03;180.89;;;;;;;19.84;47.41;99697.88;;;;-51
2021/12/07 16:15:18;;;;;;;168.46;155.42;;;;;;;19.84;47.60;99685.76;;;;-51
2021/12/07 16:18:18;;;;;;;159.33;146.98;;;;;;;19.85;47.75;99689.00;;;;-47
2021/12/07 16:21:18;;;;;;;185.49;170.49;;;;;;;19.85;47.78;99684.43;;;;-58
2021/12/07 16:24:21;;;;;;;168.33;155.44;;;;;;;19.87;47.85;99676.20;;;;-56
2021/12/07 16:27:19;;;;;;;201.46;185.92;;;;;;;19.88;47.87;99666.86;;;;-58
2021/12/07 16:30:18;;;;;;;176.46;162.87;;;;;;;19.89;47.85;99658.23;;;;-56
2021/12/07 16:33:18;;;;;;;206.67;190.77;;;;;;;19.90;47.85;99648.39;;;;-57
2021/12/07 16:36:18;;;;;;;211.44;195.01;;;;;;;19.91;47.88;99645.69;;;;-58
2021/12/07 16:39:18;;;;;;;224.43;207.25;;;;;;;19.92;47.86;99639.67;;;;-56
2021/12/07 16:42:18;;;;;;;222.26;205.07;;;;;;;19.92;47.90;99637.77;;;;-51
2021/12/07 16:45:18;;;;;;;202.43;186.87;;;;;;;19.92;47.87;99631.03;;;;-51
2021/12/07 16:48:18;;;;;;;191.71;176.75;;;;;;;19.92;47.93;99633.22;;;;-58
2021/12/07 16:51:18;;;;;;;202.31;186.76;;;;;;;19.92;47.97;99631.92;;;;-57
2021/12/07 16:54:18;;;;;;;239.31;221.22;;;;;;;19.93;47.96;99632.83;;;;-56
2021/12/07 16:57:18;;;;;;;227.01;209.67;;;;;;;19.93;47.89;99632.42;;;;-58
2021/12/07 17:00:18;;;;;;;263.55;243.20;;;;;;;19.93;48.00;99633.89;;;;-56
2021/12/07 17:03:18;;;;;;;261.18;241.24;;;;;;;19.92;47.96;99622.65;;;;-58
2021/12/07 17:06:18;;;;;;;234.18;216.29;;;;;;;19.92;47.98;99613.22;;;;-67
2021/12/07 17:09:19;;;;;;;212.59;196.39;;;;;;;19.95;47.66;99599.95;;;;-61
2021/12/07 17:12:18;;;;;;;214.54;198.23;;;;;;;19.94;47.70;99591.19;;;;-61